Time;durP1;ratioP1;P1;durP2;ratioP2;P2;SDS_P1;SDS_P2;PMS_P1;PMS_P2;Temp;Humidity;BMP_temperature;BMP_pressure;BME280_temperature;BME280_humidity;BME280_pressure;Samples;Min_cycle;Max_cycle;Signal;HPM_P1;HPM_P2
2022/10/13 00:01:16;;;;;;;;;;;16.50;66.00;;;12.06;99.75;96119.94;4991089;28;20581;-47
2022/10/13 00:03:47;;;;;;;;;;;16.50;66.00;;;12.07;99.66;96114.38;4970571;28;20288;-48
2022/10/13 00:06:17;;;;;;;;;;;16.50;66.00;;;12.06;99.29;96115.41;4968961;28;19921;-47
2022/10/13 00:08:55;;;;;;;;;;;16.60;66.00;;;12.08;99.19;96113.28;4956608;28;19914;-45
2022/10/13 00:11:27;;;;;;;;;;;16.60;66.00;;;12.06;99.03;96106.59;4973132;28;20290;-45
2022/10/13 00:14:00;;;;;;;;;;;16.60;66.00;;;12.06;99.02;96110.06;4974370;28;19917;-46
2022/10/13 00:16:28;;;;;;;;;;;16.60;65.90;;;12.07;98.85;96109.03;4973566;28;19910;-45
2022/10/13 00:18:54;;;;;;;;;;;16.60;65.90;;;12.06;98.79;96112.75;4973211;28;19913;-45
2022/10/13 00:21:24;;;;;;;;;;;16.60;65.90;;;12.06;99.16;96117.28;4973736;28;20261;-47
2022/10/13 00:23:52;;;;;;;;;;;16.60;66.00;;;12.09;98.99;96119.44;4982189;28;20382;-45
2022/10/13 00:26:20;;;;;;;;;;;16.60;66.00;;;12.10;98.85;96118.38;4974252;28;20330;-45
2022/10/13 00:28:46;;;;;;;;;;;16.60;66.00;;;12.09;98.99;96117.56;4974041;28;19963;-45
2022/10/13 00:31:23;;;;;;;;;;;16.60;65.90;;;12.09;99.07;96122.91;4988934;28;20000;-44
2022/10/13 00:33:49;;;;;;;;;;;16.60;65.90;;;12.06;99.16;96119.94;4975144;28;20268;-47
2022/10/13 00:36:16;;;;;;;;;;;16.60;66.00;;;12.08;99.11;96129.31;4972337;28;20402;-50
2022/10/13 00:38:45;;;;;;;;;;;16.50;65.90;;;12.06;99.08;96136.78;4973555;28;19914;-47
2022/10/13 00:41:12;;;;;;;;;;;16.60;66.00;;;12.02;99.28;96136.50;4972851;28;19909;-45
2022/10/13 00:44:53;;;;;;;;;;;16.60;66.00;;;12.07;99.24;96132.25;4973677;28;19920;-47
2022/10/13 00:47:20;;;;;;;;;;;16.60;66.00;;;12.07;98.72;96130.38;4932301;29;19929;-45
2022/10/13 00:49:54;;;;;;;;;;;16.50;66.00;;;12.03;98.80;96121.28;4942761;28;19911;-45
2022/10/13 00:52:23;;;;;;;;;;;16.50;66.00;;;12.01;98.71;96120.75;4967872;28;19914;-46
2022/10/13 00:54:50;;;;;;;;;;;16.50;66.00;;;11.98;98.62;96107.91;4992266;28;19909;-44
2022/10/13 00:57:22;;;;;;;;;;;16.50;66.00;;;11.94;98.44;96107.63;4992285;28;19909;-46
2022/10/13 00:59:49;;;;;;;;;;;16.40;65.90;;;11.91;98.91;96110.00;4998028;28;19920;-45
2022/10/13 01:02:29;;;;;;;;;;;16.40;65.90;;;11.86;99.14;96108.13;4960920;28;19920;-46
2022/10/13 01:04:56;;;;;;;;;;;16.40;66.00;;;11.83;99.16;96105.94;4993298;28;19916;-45
2022/10/13 01:07:23;;;;;;;;;;;16.30;66.00;;;11.80;98.82;96109.94;4992472;28;19913;-50
2022/10/13 01:09:49;;;;;;;;;;;16.30;66.00;;;11.76;98.77;96105.38;4992458;28;19910;-45
2022/10/13 01:12:28;;;;;;;;;;;16.20;66.10;;;11.73;98.61;96100.56;4992930;28;19923;-49
2022/10/13 01:15:39;;;;;;;;;;;16.20;66.20;;;11.66;99.39;96098.13;4993018;28;19952;-45
2022/10/13 01:18:31;;;;;;;;;;;16.20;66.20;;;11.62;100.00;96097.00;4975009;28;20318;-48
2022/10/13 01:21:25;;;;;;;;;;;16.10;66.30;;;11.63;100.00;96103.19;4992592;28;19956;-46
2022/10/13 01:24:35;;;;;;;;;;;16.10;66.40;;;11.61;100.00;96106.09;4992734;28;20283;-49
2022/10/13 01:27:21;;;;;;;;;;;16.10;66.50;;;11.61;100.00;96098.09;4992894;28;19923;-47
2022/10/13 01:30:06;;;;;;;;;;;16.10;66.60;;;11.63;100.00;96098.63;4991412;28;19909;-46
2022/10/13 01:33:47;;;;;;;;;;;16.10;66.60;;;11.67;100.00;96096.25;4992111;28;19913;-44
2022/10/13 01:36:27;;;;;;;;;;;16.10;66.70;;;11.69;100.00;96096.78;4931846;29;19919;-45
2022/10/13 01:39:16;;;;;;;;;;;16.20;66.80;;;11.70;100.00;96093.06;4985110;28;19943;-50
2022/10/13 01:41:52;;;;;;;;;;;16.20;66.80;;;11.70;100.00;96088.53;4998224;28;20032;-45
2022/10/13 01:44:51;;;;;;;;;;;16.10;66.70;;;11.67;100.00;96091.72;4979724;28;19917;-45
2022/10/13 01:47:24;;;;;;;;;;;16.20;66.80;;;11.72;100.00;96094.41;4976982;28;19956;-47
2022/10/13 01:49:53;;;;;;;;;;;16.20;66.70;;;11.74;100.00;96089.59;4998500;28;19913;-49
2022/10/13 01:52:26;;;;;;;;;;;16.20;66.70;;;11.71;100.00;96089.31;4992929;28;19955;-47
2022/10/13 01:54:53;;;;;;;;;;;16.20;66.70;;;11.74;100.00;96089.59;4989618;28;19917;-45
2022/10/13 01:57:40;;;;;;;;;;;16.20;66.70;;;11.76;100.00;96084.03;4974998;28;19948;-45
2022/10/13 02:00:20;;;;;;;;;;;16.20;66.70;;;11.79;100.00;96078.97;4990649;28;19948;-45
2022/10/13 02:03:00;;;;;;;;;;;16.20;66.80;;;11.84;100.00;96082.72;4975450;28;19916;-45
2022/10/13 02:05:59;;;;;;;;;;;16.20;66.90;;;11.85;100.00;96079.03;4977045;28;20004;-48
2022/10/13 02:09:06;;;;;;;;;;;16.30;66.90;;;11.86;100.00;96076.09;4975331;28;19913;-45
2022/10/13 02:12:11;;;;;;;;;;;16.30;66.90;;;11.85;100.00;96077.16;4992193;28;19909;-46
2022/10/13 02:14:43;;;;;;;;;;;16.30;67.00;;;11.87;100.00;96072.34;4975204;28;19971;-46
2022/10/13 02:17:13;;;;;;;;;;;16.30;67.00;;;11.90;100.00;96068.34;4989974;28;19988;-45
2022/10/13 02:19:39;;;;;;;;;;;16.30;67.00;;;11.88;100.00;96071.31;4991102;28;19960;-46
2022/10/13 02:22:09;;;;;;;;;;;16.30;66.90;;;11.89;100.00;96074.78;4991210;28;19995;-46
2022/10/13 02:24:35;;;;;;;;;;;16.30;66.90;;;11.89;100.00;96069.44;4982293;28;19948;-45
2022/10/13 02:27:04;;;;;;;;;;;16.40;67.00;;;11.90;100.00;96068.34;4990887;28;19909;-45
2022/10/13 02:29:30;;;;;;;;;;;16.40;67.00;;;11.89;100.00;96070.22;4990242;28;19909;-45
2022/10/13 02:31:56;;;;;;;;;;;16.30;66.90;;;11.90;100.00;96057.69;4991456;28;19913;-45
2022/10/13 02:34:22;;;;;;;;;;;16.40;67.00;;;11.91;100.00;96068.13;4990391;28;20283;-52
2022/10/13 02:36:50;;;;;;;;;;;16.40;66.90;;;11.91;100.00;96059.28;4986349;28;19910;-49
2022/10/13 02:39:17;;;;;;;;;;;16.40;67.30;;;11.91;100.00;96060.09;4990699;28;20283;-47
2022/10/13 02:41:45;;;;;;;;;;;16.40;66.90;;;11.91;100.00;96060.09;4989472;28;19966;-45
2022/10/13 02:44:14;;;;;;;;;;;16.40;66.90;;;11.92;100.00;96055.56;4990935;28;20435;-45
2022/10/13 02:46:41;;;;;;;;;;;16.40;66.90;;;11.90;100.00;96066.50;4985060;28;19964;-50
2022/10/13 02:49:06;;;;;;;;;;;16.40;66.90;;;11.93;100.00;96062.50;4986751;28;19916;-50
2022/10/13 02:51:35;;;;;;;;;;;16.40;67.00;;;11.84;100.00;96064.81;4970541;28;20284;-51
2022/10/13 02:54:07;;;;;;;;;;;16.50;67.00;;;11.87;100.00;96064.34;4972967;28;19910;-51
2022/10/13 02:56:42;;;;;;;;;;;16.40;66.90;;;11.91;100.00;96064.63;4971453;28;19917;-52
2022/10/13 02:59:07;;;;;;;;;;;16.40;67.00;;;11.92;100.00;96074.25;4968839;28;19914;-50
2022/10/13 03:01:41;;;;;;;;;;;16.40;67.00;;;11.93;100.00;96068.63;4993365;28;20324;-51
2022/10/13 03:04:10;;;;;;;;;;;16.40;67.00;;;11.95;100.00;96071.06;4986789;28;19910;-51
2022/10/13 03:06:36;;;;;;;;;;;16.50;67.10;;;11.95;100.00;96066.53;4978957;28;19910;-51
2022/10/13 03:09:05;;;;;;;;;;;16.40;67.00;;;11.95;100.00;96071.84;4972111;28;20008;-52
2022/10/13 03:11:37;;;;;;;;;;;16.50;67.10;;;11.93;100.00;96079.31;4987020;28;19910;-51
2022/10/13 03:14:15;;;;;;;;;;;16.50;67.00;;;11.98;100.00;96070.53;4983918;28;20423;-52
2022/10/13 03:16:41;;;;;;;;;;;16.50;67.00;;;12.00;100.00;96069.22;4990772;28;19916;-51
2022/10/13 03:19:07;;;;;;;;;;;16.50;67.00;;;12.01;100.00;96070.81;4990213;28;20342;-52
2022/10/13 03:21:37;;;;;;;;;;;16.50;67.10;;;12.02;100.00;96069.75;4997216;28;19937;-51
2022/10/13 03:24:04;;;;;;;;;;;16.50;67.10;;;12.02;100.00;96071.63;4971228;28;19964;-55
2022/10/13 03:26:36;;;;;;;;;;;16.50;67.10;;;11.98;100.00;96079.34;5002375;28;19910;-51
2022/10/13 03:29:02;;;;;;;;;;;16.50;67.10;;;12.00;100.00;96081.75;5005064;28;20287;-51
2022/10/13 03:31:37;;;;;;;;;;;16.50;67.10;;;11.93;100.00;96082.00;5005937;28;19996;-51
2022/10/13 03:34:02;;;;;;;;;;;16.40;67.10;;;11.93;100.00;96083.84;4991367;28;20410;-53
2022/10/13 03:36:41;;;;;;;;;;;16.50;67.20;;;11.94;100.00;96088.13;4999332;28;19913;-55
2022/10/13 03:39:10;;;;;;;;;;;16.40;67.10;;;11.97;100.00;96090.28;5006136;28;20395;-50
2022/10/13 03:41:39;;;;;;;;;;;16.40;67.20;;;11.98;100.00;96086.56;5005101;28;19932;-51
2022/10/13 03:44:06;;;;;;;;;;;16.40;67.30;;;11.97;100.00;96091.09;4980769;28;19925;-53
2022/10/13 03:46:44;;;;;;;;;;;16.40;67.30;;;11.96;100.00;96094.81;5009517;28;19918;-54
2022/10/13 03:49:11;;;;;;;;;;;16.30;67.30;;;11.96;100.00;96089.47;4989075;28;19916;-50
2022/10/13 03:51:51;;;;;;;;;;;16.40;67.40;;;11.97;100.00;96075.09;5009881;28;19913;-52
2022/10/13 03:54:23;;;;;;;;;;;16.40;67.50;;;11.95;100.00;96066.53;5003953;28;20466;-56
2022/10/13 03:56:52;;;;;;;;;;;16.40;67.50;;;11.96;100.00;96068.13;4988189;28;19909;-50
2022/10/13 03:59:23;;;;;;;;;;;16.40;67.50;;;11.95;100.00;96065.72;4991980;28;20012;-52
2022/10/13 04:01:49;;;;;;;;;;;16.40;67.50;;;11.94;100.00;96058.75;5005469;28;20016;-52
2022/10/13 04:04:17;;;;;;;;;;;16.40;67.50;;;11.94;100.00;96058.75;4993871;28;20439;-51
2022/10/13 04:06:49;;;;;;;;;;;16.40;67.50;;;11.95;100.00;96065.72;4980085;28;19948;-52
2022/10/13 04:09:21;;;;;;;;;;;16.40;67.50;;;11.94;100.00;96061.44;5010066;28;20265;-54
2022/10/13 04:11:51;;;;;;;;;;;16.40;67.50;;;11.94;100.00;96053.41;5006046;28;19913;-52
2022/10/13 04:14:23;;;;;;;;;;;16.40;67.50;;;11.93;100.00;96060.63;5003519;28;19910;-55
2022/10/13 04:16:49;;;;;;;;;;;16.40;67.50;;;11.92;100.00;96061.69;5009367;28;19945;-52
2022/10/13 04:19:15;;;;;;;;;;;16.40;68.30;;;11.93;100.00;96071.31;4995642;28;20383;-52
2022/10/13 04:21:43;;;;;;;;;;;16.40;67.50;;;11.90;100.00;96071.81;4994246;28;19909;-53
2022/10/13 04:24:21;;;;;;;;;;;16.40;67.50;;;11.92;100.00;96079.59;5008077;28;19920;-55
2022/10/13 04:26:47;;;;;;;;;;;16.40;67.50;;;11.91;100.00;96070.78;4979842;28;19909;-52
2022/10/13 04:29:13;;;;;;;;;;;16.40;67.50;;;11.93;100.00;96070.50;5003132;28;19924;-56
2022/10/13 04:31:42;;;;;;;;;;;16.40;67.50;;;11.96;100.00;96065.44;4979619;28;19999;-51
2022/10/13 04:34:20;;;;;;;;;;;16.40;67.60;;;11.93;100.00;96063.31;5008771;28;20012;-55
2022/10/13 04:36:50;;;;;;;;;;;16.40;67.60;;;11.89;100.00;96051.53;5002392;28;19932;-52
2022/10/13 04:39:19;;;;;;;;;;;16.40;67.60;;;11.89;100.00;96064.09;5009001;28;19921;-50
2022/10/13 04:41:56;;;;;;;;;;;16.40;67.60;;;11.81;100.00;96073.34;5001681;28;20324;-52
2022/10/13 04:44:22;;;;;;;;;;;16.40;67.60;;;11.71;100.00;96063.44;4991793;28;19915;-49
2022/10/13 04:46:48;;;;;;;;;;;16.30;67.50;;;11.73;100.00;96060.53;5009064;28;19917;-53
2022/10/13 04:49:17;;;;;;;;;;;16.30;67.60;;;11.77;100.00;96062.41;4975310;28;19920;-56
2022/10/13 04:51:49;;;;;;;;;;;16.20;67.60;;;11.78;100.00;96061.34;4992725;28;19913;-52
2022/10/13 04:54:17;;;;;;;;;;;16.20;67.70;;;11.80;100.00;96053.88;4996856;28;20331;-51
2022/10/13 04:56:49;;;;;;;;;;;16.20;67.80;;;11.82;100.00;96046.41;4966287;28;19949;-55
2022/10/13 04:59:24;;;;;;;;;;;16.20;67.80;;;11.81;100.00;96044.81;5003584;28;20439;-50
2022/10/13 05:01:50;;;;;;;;;;;16.20;67.80;;;11.82;100.00;96057.09;4991360;28;20408;-52
2022/10/13 05:04:16;;;;;;;;;;;16.20;67.80;;;11.80;100.00;96056.53;4992160;28;19909;-49
2022/10/13 05:06:47;;;;;;;;;;;16.20;67.80;;;11.71;100.00;96054.63;5007265;28;20044;-52
2022/10/13 05:09:15;;;;;;;;;;;16.20;67.80;;;11.69;100.00;96054.09;4992375;28;20458;-49
2022/10/13 05:11:41;;;;;;;;;;;16.20;67.80;;;11.75;100.00;96051.19;5001464;28;19941;-51
2022/10/13 05:14:10;;;;;;;;;;;16.20;67.80;;;11.75;100.00;96050.38;4989870;28;19917;-52
2022/10/13 05:16:38;;;;;;;;;;;16.20;67.90;;;11.73;100.00;96058.66;5007961;28;19917;-48
2022/10/13 05:19:04;;;;;;;;;;;16.20;67.90;;;11.69;100.00;96059.41;4979555;28;19914;-52
2022/10/13 05:21:30;;;;;;;;;;;16.20;67.90;;;11.72;100.00;96064.25;4993374;28;20349;-50
2022/10/13 05:23:57;;;;;;;;;;;16.20;67.90;;;11.74;100.00;96056.78;4980523;28;20408;-50
2022/10/13 05:26:34;;;;;;;;;;;16.20;67.90;;;11.72;100.00;96057.06;4997843;28;19909;-50
2022/10/13 05:29:01;;;;;;;;;;;16.20;67.90;;;11.71;100.00;96058.09;5007477;28;19910;-50
2022/10/13 05:31:37;;;;;;;;;;;16.20;67.90;;;11.72;99.95;96051.72;4971339;28;19910;-52
2022/10/13 05:34:11;;;;;;;;;;;16.10;67.80;;;11.72;99.87;96046.38;4965566;28;19909;-51
2022/10/13 05:36:40;;;;;;;;;;;16.20;67.80;;;11.74;99.82;96052.25;4972462;28;19910;-51
2022/10/13 05:39:08;;;;;;;;;;;16.20;67.80;;;11.74;99.41;96043.44;4983391;28;19917;-52
2022/10/13 05:41:34;;;;;;;;;;;16.20;67.80;;;11.75;99.41;96053.03;4977650;28;19918;-50
2022/10/13 05:44:07;;;;;;;;;;;16.20;67.80;;;11.73;99.24;96053.31;4972333;28;19920;-50
2022/10/13 05:46:33;;;;;;;;;;;16.20;67.80;;;11.73;99.11;96057.84;4994145;28;19933;-53
2022/10/13 05:49:02;;;;;;;;;;;16.20;67.70;;;11.74;99.39;96054.13;4974256;28;20284;-53
2022/10/13 05:51:40;;;;;;;;;;;16.20;67.70;;;11.73;99.29;96065.88;4985887;28;19953;-48
2022/10/13 05:54:51;;;;;;;;;;;16.30;67.70;;;11.75;99.30;96064.53;4987478;28;20008;-48
2022/10/13 05:57:27;;;;;;;;;;;16.30;67.60;;;11.74;99.13;96065.59;4961563;28;19917;-50
2022/10/13 06:00:19;;;;;;;;;;;16.30;67.60;;;11.74;99.13;96062.91;4996927;28;19937;-50
2022/10/13 06:03:01;;;;;;;;;;;16.30;67.60;;;11.74;99.38;96060.25;4990941;28;19917;-52
2022/10/13 06:05:27;;;;;;;;;;;16.30;67.60;;;11.78;99.69;96061.34;4996758;28;19913;-45
2022/10/13 06:07:54;;;;;;;;;;;16.30;67.50;;;11.75;99.43;96050.38;4979442;28;19909;-46
2022/10/13 06:10:22;;;;;;;;;;;16.30;67.50;;;11.65;99.61;96055.66;5007474;28;20319;-47
2022/10/13 06:12:47;;;;;;;;;;;16.40;67.50;;;11.67;99.34;96049.03;5005889;28;20376;-50
2022/10/13 06:15:19;;;;;;;;;;;16.40;67.40;;;11.74;99.24;96046.91;4991898;28;19913;-47
2022/10/13 06:17:48;;;;;;;;;;;16.40;67.40;;;11.82;99.46;96042.97;4981415;28;19909;-46
2022/10/13 06:20:13;;;;;;;;;;;16.40;67.80;;;11.83;99.18;96041.88;4984593;28;20439;-48
2022/10/13 06:22:39;;;;;;;;;;;16.40;67.50;;;11.80;98.78;96037.06;4962345;28;19913;-47
2022/10/13 06:25:08;;;;;;;;;;;16.50;67.40;;;11.87;98.84;96036.84;4970154;28;19918;-45
2022/10/13 06:27:34;;;;;;;;;;;16.50;67.30;;;11.95;98.78;96039.81;4968573;28;19934;-45
2022/10/13 06:30:07;;;;;;;;;;;16.50;67.30;;;12.01;98.83;96040.66;4980895;28;19920;-45
2022/10/13 06:32:33;;;;;;;;;;;16.60;67.30;;;12.02;98.17;96034.22;4971317;28;20418;-45
2022/10/13 06:34:59;;;;;;;;;;;16.70;67.30;;;12.07;98.15;96036.94;4971029;28;19996;-54
2022/10/13 06:37:24;;;;;;;;;;;16.70;67.20;;;12.11;98.11;96038.00;4986780;28;19910;-45
2022/10/13 06:39:50;;;;;;;;;;;16.80;67.10;;;12.18;98.01;96043.88;4987552;28;20000;-53
2022/10/13 06:42:17;;;;;;;;;;;16.90;67.10;;;12.23;97.55;96037.78;4971791;28;19909;-47
2022/10/13 06:44:43;;;;;;;;;;;16.90;66.90;;;12.26;97.23;96043.38;4972475;28;20360;-45
2022/10/13 06:47:08;;;;;;;;;;;17.00;67.60;;;12.19;96.67;96045.50;4985344;28;19922;-51
2022/10/13 06:49:34;;;;;;;;;;;17.10;66.70;;;12.24;96.29;96050.06;4974284;28;19949;-45
2022/10/13 06:52:04;;;;;;;;;;;17.10;66.60;;;12.27;96.35;96044.19;4990274;28;20405;-45
2022/10/13 06:54:30;;;;;;;;;;;17.10;66.50;;;12.27;96.44;96036.19;4988348;28;19909;-45
2022/10/13 06:56:58;;;;;;;;;;;17.20;66.40;;;12.33;96.25;96031.66;4973706;28;19920;-45
2022/10/13 06:59:26;;;;;;;;;;;17.20;66.40;;;12.23;96.39;96029.75;4989791;28;19975;-45
2022/10/13 07:01:52;;;;;;;;;;;17.30;66.40;;;12.21;96.44;96035.34;4991895;28;19920;-52
2022/10/13 07:04:18;;;;;;;;;;;17.30;66.20;;;12.33;96.22;96035.13;4991794;28;19909;-50
2022/10/13 07:06:44;;;;;;;;;;;17.40;66.20;;;12.40;95.91;96034.84;4987726;28;19920;-46
2022/10/13 07:09:13;;;;;;;;;;;17.50;66.10;;;12.53;95.49;96026.31;4973337;28;20012;-45
2022/10/13 07:11:53;;;;;;;;;;;17.60;66.10;;;12.67;94.98;96027.41;4989093;28;19913;-45
2022/10/13 07:14:22;;;;;;;;;;;17.80;66.00;;;12.82;94.59;96033.84;4990347;28;20283;-45
2022/10/13 07:16:48;;;;;;;;;;;18.00;65.90;;;13.05;94.57;96027.16;4988802;28;19963;-48
2022/10/13 07:19:13;;;;;;;;;;;18.30;65.80;;;13.24;92.89;96019.38;4990061;28;20368;-49
2022/10/13 07:21:39;;;;;;;;;;;18.50;65.60;;;13.39;91.48;96012.13;4989783;28;19963;-45
2022/10/13 07:24:11;;;;;;;;;;;18.80;65.40;;;13.47;89.64;96012.63;4990351;28;19920;-45
2022/10/13 07:26:40;;;;;;;;;;;18.90;65.00;;;13.57;88.89;96013.44;4989436;28;19909;-46
2022/10/13 07:29:06;;;;;;;;;;;19.10;64.70;;;13.62;87.53;96017.94;4990379;28;19913;-45
2022/10/13 07:31:35;;;;;;;;;;;19.30;64.40;;;13.83;87.95;96019.47;4973763;28;20265;-46
2022/10/13 07:34:03;;;;;;;;;;;19.40;64.00;;;14.08;87.13;96015.88;4990115;28;19909;-45
2022/10/13 07:36:31;;;;;;;;;;;19.60;63.90;;;14.30;85.85;96006.66;4989308;28;19921;-47
2022/10/13 07:39:06;;;;;;;;;;;19.90;63.80;;;14.48;84.58;96008.69;4974220;28;19963;-47
2022/10/13 07:41:33;;;;;;;;;;;20.00;63.50;;;14.60;83.89;96008.34;4988748;28;20343;-48
2022/10/13 07:43:58;;;;;;;;;;;20.20;63.40;;;14.81;84.06;96012.47;4991310;28;19910;-45
2022/10/13 07:49:10;;;;;;;;;;;20.60;63.00;;;14.98;81.14;96003.25;4988920;28;19996;-45
2022/10/13 07:51:36;;;;;;;;;;;20.70;62.70;;;14.99;80.83;96008.31;4989331;28;20012;-44
2022/10/13 07:54:11;;;;;;;;;;;20.70;62.40;;;15.09;81.10;96011.97;4972562;28;19941;-43
2022/10/13 07:56:52;;;;;;;;;;;20.80;62.30;;;15.09;80.18;96022.72;4988164;28;19947;-43
2022/10/13 07:59:19;;;;;;;;;;;20.90;62.00;;;15.12;79.28;96016.78;4981886;28;19958;-48
2022/10/13 08:01:44;;;;;;;;;;;20.90;61.70;;;15.01;79.20;96016.06;4973345;28;19909;-43
2022/10/13 08:04:13;;;;;;;;;;;21.00;61.30;;;15.06;80.01;96018.72;4990711;28;19979;-44
2022/10/13 08:06:48;;;;;;;;;;;21.00;61.10;;;15.24;79.00;96015.31;4989178;28;19910;-43
2022/10/13 08:09:13;;;;;;;;;;;21.10;61.00;;;15.22;79.60;96011.31;4989761;28;19913;-51
2022/10/13 08:11:42;;;;;;;;;;;21.10;60.90;;;15.34;78.52;96014.41;4993429;28;20294;-43
2022/10/13 08:14:11;;;;;;;;;;;21.20;60.90;;;15.43;78.72;96017.28;4995941;28;19913;-43
2022/10/13 08:16:44;;;;;;;;;;;21.20;60.80;;;15.50;78.17;96012.38;4972995;28;19909;-43
2022/10/13 08:19:15;;;;;;;;;;;21.20;60.70;;;15.55;77.65;96008.84;4987420;28;19913;-43
2022/10/13 08:21:45;;;;;;;;;;;21.40;60.60;;;15.73;76.80;96017.00;4972377;28;19915;-44
2022/10/13 08:24:15;;;;;;;;;;;21.50;60.40;;;15.92;75.69;96002.81;4989527;28;19909;-52
2022/10/13 08:26:50;;;;;;;;;;;21.60;60.20;;;15.90;75.82;96005.75;4989257;28;19913;-43
2022/10/13 08:29:22;;;;;;;;;;;21.80;60.00;;;16.06;75.73;96001.00;4989509;28;19948;-45
2022/10/13 08:31:48;;;;;;;;;;;22.00;59.80;;;16.25;75.23;95992.94;4976661;28;19909;-47
2022/10/13 08:34:24;;;;;;;;;;;22.10;59.70;;;16.37;73.52;95993.31;4994066;28;19909;-45
2022/10/13 08:36:55;;;;;;;;;;;22.20;59.50;;;16.45;74.23;95999.09;4991459;28;19909;-45
2022/10/13 08:39:23;;;;;;;;;;;22.40;59.40;;;16.79;74.21;96001.56;4992966;28;19914;-43
2022/10/13 08:41:49;;;;;;;;;;;22.70;59.10;;;16.91;72.40;96006.50;4997690;28;19936;-44
2022/10/13 08:44:39;;;;;;;;;;;23.10;58.60;;;17.21;70.66;96011.38;4994177;28;19920;-46
2022/10/13 08:47:55;;;;;;;;;;;23.30;58.30;;;17.01;70.13;96014.41;4990889;28;19918;-47
2022/10/13 08:50:30;;;;;;;;;;;23.40;57.60;;;17.34;70.59;96020.56;4987434;28;19957;-48
2022/10/13 08:53:26;;;;;;;;;;;23.50;57.50;;;17.53;68.30;96015.91;4992032;28;19914;-49
2022/10/13 08:56:02;;;;;;;;;;;23.70;57.30;;;17.85;68.12;96014.25;4981027;28;19913;-45
2022/10/13 08:58:32;;;;;;;;;;;24.00;57.00;;;18.09;66.59;96011.34;4991921;28;19910;-45
2022/10/13 09:01:20;;;;;;;;;;;24.40;56.80;;;18.09;65.32;96014.03;4992769;28;19909;-49
2022/10/13 09:04:16;;;;;;;;;;;24.80;56.30;;;18.21;65.05;96011.63;4993074;28;20316;-49
2022/10/13 09:07:07;;;;;;;;;;;25.00;55.90;;;18.40;65.16;96011.47;4991985;28;20451;-46
2022/10/13 09:09:33;;;;;;;;;;;25.20;55.80;;;18.67;64.20;95996.28;4975665;28;19915;-46
2022/10/13 09:12:05;;;;;;;;;;;25.30;55.60;;;18.81;64.55;95997.06;4981726;28;20020;-49
2022/10/13 09:15:10;;;;;;;;;;;25.30;55.40;;;18.78;64.83;96003.06;4997609;28;20392;-46
2022/10/13 09:17:40;;;;;;;;;;;25.30;55.10;;;18.90;62.86;96000.63;4991893;28;20332;-46
2022/10/13 09:20:27;;;;;;;;;;;25.30;55.00;;;18.47;63.73;96009.16;4992093;28;19932;-48
2022/10/13 09:23:21;;;;;;;;;;;25.10;54.70;;;18.49;64.67;96004.25;4989342;28;19909;-46
2022/10/13 09:25:51;;;;;;;;;;;25.00;54.70;;;18.44;64.72;96004.34;4986045;28;20004;-46
2022/10/13 09:28:31;;;;;;;;;;;24.80;54.80;;;18.34;64.86;96004.59;4980926;28;19932;-47
2022/10/13 09:31:22;;;;;;;;;;;24.60;54.80;;;18.13;65.94;96006.13;4998942;28;19914;-47
2022/10/13 09:34:02;;;;;;;;;;;24.50;54.80;;;18.19;65.96;96011.09;4993068;28;20315;-47
2022/10/13 09:36:30;;;;;;;;;;;24.20;54.90;;;17.82;66.79;96014.03;4981631;28;20444;-46
2022/10/13 09:39:15;;;;;;;;;;;24.00;54.80;;;17.63;67.65;96020.28;4991745;28;19948;-45
2022/10/13 09:41:43;;;;;;;;;;;23.80;54.80;;;17.50;67.93;96019.19;4978152;28;19920;-46
2022/10/13 09:44:26;;;;;;;;;;;23.60;54.90;;;17.50;68.02;96019.19;4994025;28;19913;-45
2022/10/13 09:47:01;;;;;;;;;;;23.50;55.00;;;17.49;68.75;96019.50;4989687;28;19998;-46
2022/10/13 09:49:41;;;;;;;;;;;23.40;55.10;;;17.50;68.75;96024.56;4963548;28;19909;-47
2022/10/13 09:52:18;;;;;;;;;;;23.40;55.10;;;17.51;69.06;96020.78;4989295;28;19914;-47
2022/10/13 09:54:52;;;;;;;;;;;23.40;55.10;;;17.65;68.81;96018.13;4984942;28;19921;-47
2022/10/13 09:57:47;;;;;;;;;;;23.50;55.10;;;17.80;68.52;96014.38;4990164;28;19917;-45
2022/10/13 10:00:25;;;;;;;;;;;23.60;55.00;;;17.89;68.40;96012.53;4989270;28;20388;-45
2022/10/13 10:03:34;;;;;;;;;;;23.80;55.00;;;17.77;67.37;96012.25;4973203;28;19971;-46
2022/10/13 10:06:21;;;;;;;;;;;23.90;54.80;;;17.78;67.10;96013.84;4972842;28;20287;-47
2022/10/13 10:09:32;;;;;;;;;;;24.00;54.60;;;17.87;67.07;96011.25;4974836;28;19917;-45
2022/10/13 10:12:01;;;;;;;;;;;24.00;54.50;;;17.82;67.27;96014.03;4991013;28;19932;-46
2022/10/13 10:14:35;;;;;;;;;;;24.00;54.30;;;17.84;66.42;96009.97;4957043;28;20276;-46
2022/10/13 10:17:27;;;;;;;;;;;24.10;54.20;;;17.71;67.21;96006.16;4990399;28;19909;-47
2022/10/13 10:20:39;;;;;;;;;;;24.10;53.80;;;17.90;66.39;96000.69;4985654;28;20315;-46
2022/10/13 10:23:29;;;;;;;;;;;24.20;53.80;;;18.04;65.92;96000.66;4972590;28;19909;-49
2022/10/13 10:26:50;;;;;;;;;;;24.40;53.70;;;18.17;64.82;95997.13;4990028;28;19916;-45
2022/10/13 10:29:36;;;;;;;;;;;24.50;53.50;;;17.98;65.88;95991.06;4981011;28;19952;-46
2022/10/13 10:32:29;;;;;;;;;;;24.60;53.10;;;18.12;65.82;95989.16;4991681;28;20024;-47
2022/10/13 10:35:17;;;;;;;;;;;24.60;52.80;;;18.31;64.95;95999.00;4990506;28;20368;-46
2022/10/13 10:38:17;;;;;;;;;;;24.70;52.80;;;18.00;65.89;95991.59;4991815;28;19919;-47
2022/10/13 10:40:59;;;;;;;;;;;24.80;52.20;;;18.04;65.98;95985.28;4995837;28;20406;-46
2022/10/13 10:44:13;;;;;;;;;;;24.80;52.20;;;18.31;65.49;95990.94;4988810;28;19965;-47
2022/10/13 10:46:46;;;;;;;;;;;24.80;52.10;;;18.25;64.71;95996.41;4997932;28;19936;-47
2022/10/13 10:49:32;;;;;;;;;;;24.80;52.00;;;18.25;64.88;96006.41;4978985;28;19921;-46
2022/10/13 10:52:09;;;;;;;;;;;24.80;51.80;;;18.09;65.22;95992.47;4992330;28;19910;-45
2022/10/13 10:54:52;;;;;;;;;;;24.70;51.70;;;18.00;65.76;95994.28;4983823;28;19913;-47
2022/10/13 10:57:49;;;;;;;;;;;24.70;51.60;;;18.22;65.17;95996.22;4995051;28;19913;-45
2022/10/13 11:00:21;;;;;;;;;;;24.70;51.60;;;18.44;64.60;95990.88;5000659;28;19948;-46
2022/10/13 11:03:21;;;;;;;;;;;24.80;51.70;;;18.54;63.76;95978.25;4986115;28;20369;-47
2022/10/13 11:06:30;;;;;;;;;;;24.90;51.60;;;18.87;63.62;95971.56;4994387;28;20403;-48
2022/10/13 11:09:06;;;;;;;;;;;25.10;51.60;;;18.97;62.40;95969.72;4990357;28;19909;-46
2022/10/13 11:11:41;;;;;;;;;;;25.30;51.60;;;19.05;62.51;95971.66;4989093;28;20296;-47
2022/10/13 11:14:07;;;;;;;;;;;25.40;51.40;;;18.84;61.83;95969.47;4989885;28;19913;-46
2022/10/13 11:17:08;;;;;;;;;;;25.50;51.20;;;18.91;62.25;95958.25;4989438;28;19913;-46
2022/10/13 11:19:37;;;;;;;;;;;25.50;51.00;;;18.87;62.12;95959.97;4978760;28;19921;-49
2022/10/13 11:22:20;;;;;;;;;;;25.50;50.70;;;18.89;62.04;95957.75;4973821;28;19936;-46
2022/10/13 11:24:51;;;;;;;;;;;25.60;50.60;;;18.90;62.12;95953.94;4990433;28;20261;-48
2022/10/13 11:27:23;;;;;;;;;;;25.60;50.50;;;19.12;62.03;95948.50;4972128;28;20368;-45
2022/10/13 11:30:00;;;;;;;;;;;25.60;50.40;;;19.17;60.78;95950.28;4988886;28;19920;-47
2022/10/13 11:35:12;;;;;;;;;;;25.80;50.40;;;19.38;61.56;95955.94;4991246;28;19913;-49
2022/10/13 11:38:03;;;;;;;;;;;25.80;50.40;;;19.40;60.00;95945.63;4990512;28;19909;-45
2022/10/13 11:41:16;;;;;;;;;;;25.90;50.30;;;19.40;60.58;95946.41;4989096;28;20427;-47
2022/10/13 11:44:20;;;;;;;;;;;25.90;50.20;;;19.69;60.10;95941.63;4970389;28;19917;-46
2022/10/13 11:47:26;;;;;;;;;;;26.00;50.20;;;19.83;59.69;95945.78;4990937;28;20028;-46
2022/10/13 11:50:18;;;;;;;;;;;26.00;50.30;;;19.98;60.27;95938.34;4987004;28;20399;-47
2022/10/13 11:53:15;;;;;;;;;;;26.00;50.40;;;19.70;59.27;95932.38;4989354;28;19967;-48
2022/10/13 11:56:00;;;;;;;;;;;26.00;50.20;;;19.52;58.77;95923.41;4986899;28;19913;-49
2022/10/13 11:58:31;;;;;;;;;;;25.90;50.00;;;19.15;60.08;95917.41;4989114;28;19959;-47